Weather at Ringhorne Platform

Public forecast

Using degrees Celsius for public forecast. Weather courtesy of forecast.io.

Closest aviation weather report (METAR) to Ringhorne Platform

Closest report is Ula Platform, 15.4 nm (28.4 km) SE. Retrieved 2021/10/22 02:20 UTC (46 seconds ago):

ENLA 220220Z AUTO 30023KT 8000NDV -SHRA BKN029/// 08/05 Q0996 RESHRA W///S6

Closest aviation forecast (TAF) to Ringhorne Platform

Closest forecast is Oseberg A Platform, 74.4 nm (137.8 km) N. Retrieved 2021-10-22 00:57 UTC (1 hour ago):

TAF ENOA 212300Z 2200/2224 33030KT 9999 -SHRA FEW015TCU SCT025 TEMPO 2200/2214 32040G50KT SHRA BKN014CB BECMG 2222/2224 32020KT